Time;durP1;ratioP1;P1;durP2;ratioP2;P2;SDS_P1;SDS_P2;PMS_P1;PMS_P2;Temp;Humidity;BMP_temperature;BMP_pressure;BME280_temperature;BME280_humidity;BME280_pressure;Samples;Min_cycle;Max_cycle;Signal;HPM_P1;HPM_P2
2020/12/01 00:01:45;;;;;;;26.73;17.83;;;4.60;99.90;;;;;;10456188;28;20200;-80
2020/12/01 00:07:07;;;;;;;30.07;19.00;;;4.70;99.90;;;;;;10454954;28;20213;-80
2020/12/01 00:12:28;;;;;;;29.90;19.17;;;4.70;99.90;;;;;;10455814;28;20189;-79
2020/12/01 00:17:50;;;;;;;30.07;19.43;;;4.70;99.90;;;;;;10453385;28;20221;-79
2020/12/01 00:23:12;;;;;;;28.47;18.13;;;4.80;99.90;;;;;;10455559;28;20189;-79
2020/12/01 00:28:34;;;;;;;25.80;17.97;;;4.70;99.90;;;;;;10415162;28;20217;-80
2020/12/01 00:33:57;;;;;;;26.00;18.27;;;4.60;99.90;;;;;;10413288;28;20225;-80
2020/12/01 00:39:18;;;;;;;29.23;19.67;;;4.70;99.90;;;;;;10413769;28;20205;-79
2020/12/01 00:44:40;;;;;;;27.30;19.37;;;4.80;99.90;;;;;;10412170;28;20214;-80
2020/12/01 00:50:04;;;;;;;26.47;19.23;;;4.80;99.90;;;;;;10412326;28;20208;-79
2020/12/01 00:55:26;;;;;;;27.77;18.70;;;4.80;99.90;;;;;;10443739;28;20213;-79
2020/12/01 01:00:48;;;;;;;29.30;19.13;;;4.80;99.90;;;;;;10462763;28;20204;-79
2020/12/01 01:06:12;;;;;;;26.53;17.73;;;4.90;99.90;;;;;;10461809;28;20220;-79
2020/12/01 01:11:34;;;;;;;26.63;17.57;;;4.70;99.90;;;;;;10461898;28;20204;-79
2020/12/01 01:16:55;;;;;;;26.70;17.60;;;4.60;99.90;;;;;;10460099;28;20212;-79
2020/12/01 01:22:18;;;;;;;27.97;19.67;;;4.80;99.90;;;;;;10460293;28;20193;-79
2020/12/01 01:27:39;;;;;;;28.03;19.13;;;4.60;99.90;;;;;;10459465;28;20213;-79
2020/12/01 01:33:01;;;;;;;25.60;18.80;;;4.50;99.90;;;;;;10460667;28;20260;-79
2020/12/01 01:38:23;;;;;;;27.80;18.80;;;4.60;99.90;;;;;;10459428;28;20216;-80
2020/12/01 01:43:45;;;;;;;27.37;18.40;;;4.60;99.90;;;;;;10459092;28;20197;-79
2020/12/01 01:49:10;;;;;;;27.23;18.23;;;4.60;99.90;;;;;;10458988;28;20197;-80
2020/12/01 01:54:33;;;;;;;24.63;17.10;;;4.80;99.90;;;;;;10459019;28;20229;-79
2020/12/01 01:59:55;;;;;;;24.23;17.03;;;4.70;99.90;;;;;;10459070;28;20193;-79
2020/12/01 02:05:17;;;;;;;25.63;17.93;;;4.80;99.90;;;;;;10457703;28;20216;-79
2020/12/01 02:10:40;;;;;;;22.53;17.40;;;4.80;99.90;;;;;;10458415;28;20216;-80
2020/12/01 02:16:01;;;;;;;23.97;16.70;;;4.70;99.90;;;;;;10458201;28;20213;-79
2020/12/01 02:21:30;;;;;;;24.17;16.73;;;4.60;99.90;;;;;;10416877;28;20189;-79
2020/12/01 02:26:54;;;;;;;19.60;14.27;;;4.50;99.90;;;;;;10416879;28;20202;-79
2020/12/01 02:32:17;;;;;;;20.47;14.97;;;4.50;99.90;;;;;;10417712;28;20194;-80
2020/12/01 02:37:42;;;;;;;23.37;15.87;;;4.50;99.90;;;;;;10414796;28;20679;-79
2020/12/01 02:43:09;;;;;;;21.17;14.77;;;4.60;99.90;;;;;;10415462;28;20313;-79
2020/12/01 02:48:31;;;;;;;20.80;14.73;;;4.60;99.90;;;;;;10414840;28;20216;-79
2020/12/01 02:53:53;;;;;;;20.07;14.10;;;4.80;99.90;;;;;;10415564;28;20209;-79
2020/12/01 02:59:16;;;;;;;20.87;14.13;;;4.80;99.90;;;;;;10425809;28;20193;-80
2020/12/01 03:04:37;;;;;;;20.57;14.53;;;4.80;99.90;;;;;;10456986;28;20213;-80
2020/12/01 03:09:59;;;;;;;19.00;13.70;;;4.80;99.90;;;;;;10463678;28;20663;-79
2020/12/01 03:15:21;;;;;;;19.37;14.03;;;4.90;99.90;;;;;;10459446;28;20217;-80
2020/12/01 03:20:43;;;;;;;17.80;12.93;;;4.80;99.90;;;;;;10459482;28;20193;-79
2020/12/01 03:26:05;;;;;;;19.07;14.07;;;4.80;99.90;;;;;;10458031;28;20205;-80
2020/12/01 03:31:27;;;;;;;19.10;14.57;;;4.80;99.90;;;;;;10458519;28;20570;-80
2020/12/01 03:36:49;;;;;;;19.20;14.87;;;5.00;99.90;;;;;;10456228;28;20209;-79
2020/12/01 03:42:10;;;;;;;21.23;15.77;;;4.90;99.90;;;;;;10456942;28;20204;-79
2020/12/01 03:47:33;;;;;;;21.20;15.43;;;4.90;99.90;;;;;;10456109;28;20598;-79
2020/12/01 03:52:54;;;;;;;21.00;15.30;;;5.00;99.90;;;;;;10448210;28;20243;-79
2020/12/01 03:58:16;;;;;;;22.83;16.23;;;4.90;99.90;;;;;;10454997;28;20594;-79
2020/12/01 04:03:39;;;;;;;23.57;16.00;;;5.00;99.90;;;;;;10456934;28;20265;-80
2020/12/01 04:09:02;;;;;;;22.70;16.37;;;5.00;99.90;;;;;;10458790;28;20197;-80
2020/12/01 04:14:24;;;;;;;21.13;14.97;;;5.10;99.90;;;;;;10455676;28;20223;-80
2020/12/01 04:19:46;;;;;;;21.27;14.83;;;4.90;99.90;;;;;;10455807;28;20193;-79
2020/12/01 04:25:09;;;;;;;19.57;14.83;;;4.80;99.90;;;;;;10454608;28;20216;-79
2020/12/01 04:30:31;;;;;;;20.23;15.37;;;4.80;99.90;;;;;;10455508;28;20703;-79
2020/12/01 04:35:53;;;;;;;21.77;16.03;;;4.80;99.90;;;;;;10455851;28;20217;-80
2020/12/01 04:41:16;;;;;;;21.10;14.27;;;4.90;99.90;;;;;;10461709;28;20729;-79
2020/12/01 04:46:39;;;;;;;20.80;14.97;;;5.00;99.90;;;;;;10460091;28;20224;-80
2020/12/01 04:52:25;;;;;;;19.83;14.90;;;5.00;99.90;;;;;;10452791;28;20205;-79
2020/12/01 04:58:16;;;;;;;20.57;15.90;;;4.90;99.90;;;;;;10461649;28;20216;-79
2020/12/01 05:04:03;;;;;;;19.37;13.53;;;4.90;99.90;;;;;;10462814;28;20201;-80
2020/12/01 05:09:33;;;;;;;19.77;14.90;;;4.80;99.90;;;;;;10462509;28;20589;-79
2020/12/01 05:15:00;;;;;;;19.17;13.87;;;4.80;99.90;;;;;;10460648;28;20213;-80
2020/12/01 05:20:21;;;;;;;19.63;13.90;;;4.90;99.90;;;;;;10458722;28;20609;-80
2020/12/01 05:25:43;;;;;;;18.83;13.87;;;4.90;99.90;;;;;;10459260;28;20232;-80
2020/12/01 05:31:06;;;;;;;19.13;14.47;;;4.90;99.90;;;;;;10460259;28;20185;-78
2020/12/01 05:36:33;;;;;;;18.87;14.73;;;4.90;99.90;;;;;;10458926;28;20321;-78
2020/12/01 05:42:03;;;;;;;19.90;14.37;;;4.90;99.90;;;;;;10460242;28;20252;-79
2020/12/01 05:47:36;;;;;;;17.37;14.00;;;5.10;99.90;;;;;;10456798;28;20288;-79
2020/12/01 05:53:05;;;;;;;18.80;13.57;;;5.10;99.90;;;;;;10458610;28;20259;-78
2020/12/01 05:58:38;;;;;;;18.70;14.57;;;5.10;99.90;;;;;;10466190;28;20221;-84
2020/12/01 06:04:07;;;;;;;18.80;14.17;;;5.10;99.90;;;;;;10474352;28;20231;-83
2020/12/01 06:09:56;;;;;;;17.70;12.50;;;5.10;99.90;;;;;;10469009;28;20284;-85
2020/12/01 06:15:23;;;;;;;17.80;12.93;;;5.10;99.90;;;;;;10469144;28;20217;-89
2020/12/01 06:20:54;;;;;;;20.70;17.47;;;5.10;99.90;;;;;;10460361;28;20428;-86
2020/12/01 06:26:53;;;;;;;17.83;14.10;;;5.00;99.90;;;;;;10461837;28;20209;-79
2020/12/01 06:32:55;;;;;;;18.93;14.00;;;5.10;99.90;;;;;;10459389;28;20225;-80
2020/12/01 06:38:28;;;;;;;20.07;14.23;;;5.10;99.90;;;;;;10460061;28;20399;-81
2020/12/01 06:50:17;;;;;;;19.70;14.50;;;5.10;99.90;;;;;;10500019;22;20197;-85
2020/12/01 06:55:47;;;;;;;17.50;14.20;;;5.00;99.90;;;;;;10466532;28;20202;-85
2020/12/01 07:01:25;;;;;;;20.20;14.90;;;5.00;99.90;;;;;;10431533;28;20189;-85
2020/12/01 07:06:50;;;;;;;19.27;13.67;;;5.00;99.90;;;;;;10420839;28;20222;-86
2020/12/01 07:12:42;;;;;;;19.67;14.40;;;5.00;99.90;;;;;;10421574;28;20198;-86
2020/12/01 07:18:10;;;;;;;21.50;15.20;;;5.10;99.90;;;;;;10445330;28;20215;-85
2020/12/01 07:23:37;;;;;;;22.43;16.03;;;5.10;99.90;;;;;;10455801;28;20713;-86
2020/12/01 07:29:09;;;;;;;22.37;16.00;;;5.10;99.90;;;;;;10450426;28;20226;-87
2020/12/01 07:34:32;;;;;;;19.80;15.10;;;5.10;99.90;;;;;;10419108;28;20245;-86
2020/12/01 07:40:32;;;;;;;21.73;15.37;;;5.10;99.90;;;;;;10394211;28;20277;-86
2020/12/01 07:46:51;;;;;;;19.97;14.63;;;5.00;99.90;;;;;;10406007;28;20236;-86
2020/12/01 07:52:34;;;;;;;21.43;15.57;;;4.90;99.90;;;;;;10445727;28;20222;-86
2020/12/01 07:57:59;;;;;;;20.93;14.80;;;5.00;99.90;;;;;;10450586;28;20228;-86
2020/12/01 08:03:24;;;;;;;20.60;15.53;;;5.00;99.90;;;;;;10446859;28;20355;-86
2020/12/01 08:08:47;;;;;;;21.33;15.50;;;5.20;99.90;;;;;;10410123;28;20198;-86
2020/12/01 08:14:10;;;;;;;24.63;16.10;;;5.00;99.90;;;;;;10461014;28;20300;-86
2020/12/01 08:19:34;;;;;;;21.77;15.70;;;5.00;99.90;;;;;;10455047;28;20197;-85
2020/12/01 08:25:00;;;;;;;23.33;16.50;;;5.00;99.90;;;;;;10463271;28;20209;-85
2020/12/01 08:30:29;;;;;;;22.60;16.37;;;5.20;99.90;;;;;;10463312;28;20192;-86
2020/12/01 08:36:00;;;;;;;21.53;16.67;;;5.10;99.90;;;;;;10460485;28;20589;-86
2020/12/01 08:41:38;;;;;;;23.17;15.63;;;5.00;99.90;;;;;;10460692;28;20278;-86
2020/12/01 08:47:16;;;;;;;24.47;16.80;;;5.10;99.90;;;;;;10458133;28;20597;-85
2020/12/01 08:52:42;;;;;;;23.93;17.10;;;5.20;99.90;;;;;;10382410;28;20289;-85
2020/12/01 08:58:25;;;;;;;23.53;16.67;;;5.30;99.90;;;;;;10430816;28;20225;-85
2020/12/01 09:03:54;;;;;;;24.33;17.47;;;5.20;99.90;;;;;;10448341;28;20873;-85
2020/12/01 09:09:20;;;;;;;24.03;16.97;;;5.20;99.90;;;;;;10461710;28;20296;-84
2020/12/01 09:14:56;;;;;;;23.13;16.23;;;5.20;99.90;;;;;;10491258;28;20220;-85
2020/12/01 09:20:30;;;;;;;24.20;16.97;;;5.20;99.90;;;;;;10458744;28;20198;-83
2020/12/01 09:25:54;;;;;;;24.70;17.20;;;5.20;99.90;;;;;;10432947;28;20340;-84
2020/12/01 09:31:16;;;;;;;27.13;17.83;;;5.10;99.90;;;;;;10446331;28;20284;-84
2020/12/01 09:36:37;;;;;;;22.53;16.80;;;5.10;99.90;;;;;;10449657;28;20217;-84
2020/12/01 09:42:06;;;;;;;21.00;16.33;;;5.10;99.90;;;;;;10464307;28;20284;-84
2020/12/01 09:47:35;;;;;;;21.37;15.63;;;5.40;99.90;;;;;;10455219;28;20214;-83
2020/12/01 10:10:18;;;;;;;22.27;16.17;;;5.40;99.90;;;;;;10419409;28;20739;-82
2020/12/01 10:16:24;;;;;;;21.37;15.40;;;5.60;99.90;;;;;;10380033;28;20233;-84
2020/12/01 10:27:42;;;;;;;20.50;14.57;;;5.50;99.90;;;;;;10421824;28;20924;-81
2020/12/01 10:38:45;;;;;;;23.07;15.20;;;5.70;99.90;;;;;;10462016;28;20223;-83
2020/12/01 10:44:07;;;;;;;21.00;15.40;;;6.00;99.90;;;;;;10455921;28;20296;-83
2020/12/01 10:49:30;;;;;;;21.87;14.73;;;6.10;99.90;;;;;;10419753;28;20194;-82
2020/12/01 10:54:51;;;;;;;19.50;13.60;;;5.90;99.90;;;;;;10420747;28;20317;-87
2020/12/01 11:00:13;;;;;;;20.73;15.23;;;5.70;99.90;;;;;;10451439;28;20282;-85
2020/12/01 11:05:35;;;;;;;24.27;14.20;;;5.50;99.90;;;;;;10396531;28;20302;-85
2020/12/01 11:10:56;;;;;;;19.50;13.73;;;5.60;99.90;;;;;;10404173;28;20656;-84
2020/12/01 11:16:18;;;;;;;23.87;15.67;;;5.90;99.90;;;;;;10437179;28;20721;-83
2020/12/01 11:21:40;;;;;;;21.40;15.90;;;6.10;99.90;;;;;;10417660;28;20385;-86
2020/12/01 11:27:02;;;;;;;22.53;15.87;;;6.30;99.90;;;;;;10418714;28;20217;-86
2020/12/01 11:32:23;;;;;;;19.03;13.97;;;6.20;99.90;;;;;;10428437;28;20283;-87
2020/12/01 11:37:46;;;;;;;20.93;15.20;;;6.00;99.90;;;;;;10447212;28;20221;-86
2020/12/01 11:43:07;;;;;;;22.63;15.80;;;5.90;99.90;;;;;;10409635;28;20232;-84
2020/12/01 11:48:29;;;;;;;20.73;14.60;;;6.10;99.90;;;;;;10418974;28;20340;-85
2020/12/01 11:54:01;;;;;;;23.47;15.90;;;5.90;99.90;;;;;;10434654;28;20526;-87
2020/12/01 12:11:05;;;;;;;26.13;16.43;;;6.10;99.90;;;;;;10457426;28;20197;-84
2020/12/01 12:16:27;;;;;;;21.97;14.80;;;6.20;99.90;;;;;;10406512;28;20308;-87
2020/12/01 12:21:51;;;;;;;21.43;15.47;;;6.00;99.90;;;;;;10431612;28;20201;-86
2020/12/01 12:27:14;;;;;;;23.97;15.20;;;5.90;99.90;;;;;;10472754;28;20213;-87
2020/12/01 12:32:37;;;;;;;22.13;14.90;;;6.00;99.90;;;;;;10468053;28;20189;-89
2020/12/01 12:38:00;;;;;;;19.30;14.27;;;6.10;99.90;;;;;;10477084;28;20255;-88
2020/12/01 12:43:24;;;;;;;18.90;14.20;;;6.10;99.90;;;;;;10410462;28;20221;-89
2020/12/01 12:48:45;;;;;;;18.13;12.33;;;6.00;99.90;;;;;;10439693;28;20201;-89
2020/12/01 12:54:07;;;;;;;14.10;10.93;;;6.10;99.90;;;;;;10444680;28;20214;-88
2020/12/01 12:59:29;;;;;;;17.40;12.57;;;6.20;99.90;;;;;;10448970;28;20204;-88
2020/12/01 13:04:51;;;;;;;16.73;12.83;;;6.40;99.90;;;;;;10452068;28;20221;-87
2020/12/01 13:10:13;;;;;;;29.03;14.10;;;6.50;99.90;;;;;;10446380;28;20260;-88
2020/12/01 13:15:36;;;;;;;17.87;12.37;;;6.30;99.90;;;;;;10405798;28;20207;-87
2020/12/01 13:20:57;;;;;;;17.03;11.80;;;6.50;99.90;;;;;;10452001;28;20190;-86
2020/12/01 13:26:20;;;;;;;19.57;14.00;;;6.50;99.90;;;;;;10406090;28;20214;-88
2020/12/01 13:31:42;;;;;;;20.90;13.20;;;6.60;99.90;;;;;;10413578;28;20189;-88
2020/12/01 13:37:04;;;;;;;18.43;12.43;;;6.50;99.90;;;;;;10492679;28;20219;-88
2020/12/01 13:42:27;;;;;;;17.27;12.33;;;6.40;99.90;;;;;;10487316;28;20189;-87
2020/12/01 13:47:49;;;;;;;18.20;11.73;;;6.40;99.90;;;;;;10460515;28;20213;-88
2020/12/01 13:53:13;;;;;;;18.77;11.97;;;6.30;99.90;;;;;;10484732;28;20201;-86
2020/12/01 13:58:35;;;;;;;19.60;13.00;;;6.40;99.90;;;;;;10475223;28;20245;-87
2020/12/01 14:03:57;;;;;;;23.13;12.77;;;6.60;99.90;;;;;;10466016;28;20206;-88
2020/12/01 14:09:19;;;;;;;16.57;12.00;;;6.60;99.90;;;;;;10451374;28;20556;-87
2020/12/01 14:14:40;;;;;;;18.97;11.90;;;6.30;99.90;;;;;;10425812;28;20561;-87
2020/12/01 14:20:04;;;;;;;19.20;12.00;;;6.20;99.90;;;;;;10448010;28;20192;-87
2020/12/01 14:25:26;;;;;;;17.70;10.50;;;6.50;99.90;;;;;;10478080;28;20209;-87
2020/12/01 14:31:19;;;;;;;14.77;10.50;;;6.40;99.90;;;;;;10496087;28;20197;-89
2020/12/01 14:36:42;;;;;;;14.90;9.93;;;6.10;99.90;;;;;;10504700;28;20213;-85
2020/12/01 14:42:06;;;;;;;16.40;9.73;;;6.10;99.90;;;;;;10486807;28;20200;-87
2020/12/01 14:54:11;;;;;;;13.10;9.70;;;5.80;99.90;;;;;;10426691;28;20224;-88
2020/12/01 15:00:06;;;;;;;15.50;10.60;;;5.90;99.90;;;;;;10442759;28;20263;-87
2020/12/01 15:05:50;;;;;;;16.63;11.20;;;5.80;99.90;;;;;;10426399;28;20267;-87
2020/12/01 15:11:28;;;;;;;16.60;11.37;;;5.80;99.90;;;;;;10425838;28;20259;-88
2020/12/01 15:17:20;;;;;;;19.73;11.67;;;5.90;99.90;;;;;;10435006;28;20738;-86
2020/12/01 15:23:09;;;;;;;16.93;11.40;;;5.80;99.90;;;;;;10397374;28;20214;-89
2020/12/01 15:28:48;;;;;;;;;;;;;;;;;;;;;
2020/12/01 15:34:09;;;;;;;19.10;12.47;;;6.10;99.90;;;;;;10413910;28;20213;-88
2020/12/01 15:39:32;;;;;;;18.23;11.93;;;6.00;99.90;;;;;;10409934;28;20230;-88
2020/12/01 15:52:09;;;;;;;17.23;11.50;;;6.00;99.90;;;;;;10431968;28;20178;-87
2020/12/01 15:58:11;;;;;;;15.37;10.53;;;6.10;99.90;;;;;;10422887;28;20693;-88
2020/12/01 16:10:39;;;;;;;17.37;11.07;;;6.10;99.90;;;;;;10442573;28;20671;-88
2020/12/01 16:16:12;;;;;;;15.20;10.30;;;6.30;99.90;;;;;;10352489;28;20221;-87
2020/12/01 16:21:37;;;;;;;18.73;12.00;;;6.20;99.90;;;;;;10429866;28;20220;-88
2020/12/01 16:27:05;;;;;;;21.93;11.30;;;6.20;99.90;;;;;;10475496;28;20209;-88
2020/12/01 16:32:29;;;;;;;18.07;11.17;;;6.20;99.90;;;;;;10476956;28;20214;-87
2020/12/01 16:38:09;;;;;;;20.13;11.87;;;6.10;99.90;;;;;;10462472;28;20225;-85
2020/12/01 16:44:05;;;;;;;16.50;10.43;;;6.00;99.90;;;;;;10455120;28;20208;-88
2020/12/01 16:49:57;;;;;;;17.07;11.23;;;5.90;99.90;;;;;;10439934;28;20258;-89
2020/12/01 16:55:42;;;;;;;19.10;12.33;;;5.90;99.90;;;;;;10457202;28;20222;-87
2020/12/01 17:01:29;;;;;;;20.93;13.13;;;5.90;99.90;;;;;;10437408;28;20212;-86
2020/12/01 17:07:12;;;;;;;20.63;13.63;;;5.90;99.90;;;;;;10451922;28;20205;-88
2020/12/01 17:13:07;;;;;;;21.13;13.17;;;5.80;99.90;;;;;;10450672;28;20189;-88
2020/12/01 17:18:29;;;;;;;22.67;13.73;;;5.90;99.90;;;;;;10466978;28;20228;-84
2020/12/01 17:23:52;;;;;;;29.03;16.20;;;5.80;99.90;;;;;;10478453;28;20631;-85
2020/12/01 17:29:17;;;;;;;30.57;16.40;;;5.80;99.90;;;;;;10476669;28;20185;-87
2020/12/01 17:35:00;;;;;;;28.83;17.00;;;5.90;99.90;;;;;;10483308;28;20213;-87
2020/12/01 17:40:33;;;;;;;33.40;17.57;;;5.90;99.90;;;;;;10479805;28;20193;-86
2020/12/01 17:46:29;;;;;;;37.15;23.75;;;5.90;99.90;;;;;;10479864;28;20474;-86
2020/12/01 17:52:18;;;;;;;28.90;16.83;;;6.10;99.90;;;;;;10443058;28;20228;-85
2020/12/01 17:57:41;;;;;;;27.83;15.60;;;5.90;99.90;;;;;;10458894;28;20267;-87
2020/12/01 18:08:57;;;;;;;27.13;15.07;;;5.90;99.90;;;;;;10467239;28;20562;-86
2020/12/01 18:14:35;;;;;;;28.43;15.93;;;5.90;99.90;;;;;;10442220;28;20214;-86
2020/12/01 18:20:22;;;;;;;26.50;15.90;;;5.90;99.90;;;;;;10431777;28;20660;-84
2020/12/01 18:25:49;;;;;;;30.20;16.37;;;5.90;99.90;;;;;;10431942;28;20324;-82
2020/12/01 18:31:21;;;;;;;27.70;15.17;;;6.00;99.90;;;;;;10431673;28;20680;-88
2020/12/01 18:36:45;;;;;;;30.97;17.50;;;6.00;99.90;;;;;;10420417;28;20213;-87
2020/12/01 18:42:06;;;;;;;26.07;15.83;;;6.00;99.90;;;;;;10440804;28;20220;-87
2020/12/01 18:47:33;;;;;;;26.20;14.80;;;5.80;99.90;;;;;;10459485;28;20300;-88
2020/12/01 18:53:04;;;;;;;23.37;14.53;;;5.80;99.90;;;;;;10360290;28;20317;-86
2020/12/01 18:58:28;;;;;;;23.53;14.67;;;5.70;99.90;;;;;;10373097;28;20225;-87
2020/12/01 19:03:51;;;;;;;23.03;14.93;;;5.50;99.90;;;;;;10380589;28;20194;-85
2020/12/01 19:09:15;;;;;;;24.43;15.50;;;5.70;99.90;;;;;;10383066;28;20276;-87
2020/12/01 19:14:38;;;;;;;28.83;17.27;;;5.60;99.90;;;;;;10449614;28;20267;-86
2020/12/01 19:20:00;;;;;;;29.53;18.60;;;5.60;99.90;;;;;;10431404;28;20258;-87
2020/12/01 19:25:54;;;;;;;36.87;21.03;;;5.60;99.90;;;;;;10464318;28;20217;-85
2020/12/01 19:31:16;;;;;;;39.03;23.43;;;5.70;99.90;;;;;;10346320;28;20214;-88
2020/12/01 19:36:43;;;;;;;36.20;24.33;;;5.60;99.90;;;;;;10461525;28;20239;-86
2020/12/01 19:48:03;;;;;;;40.53;24.27;;;5.60;99.90;;;;;;10454589;28;20205;-84
2020/12/01 19:53:25;;;;;;;42.57;25.17;;;5.60;99.90;;;;;;10449897;28;20220;-83
2020/12/01 19:58:47;;;;;;;44.90;28.20;;;5.70;99.90;;;;;;10437053;28;20241;-86
2020/12/01 20:04:08;;;;;;;44.13;25.67;;;5.70;99.90;;;;;;10440517;28;20278;-86
2020/12/01 20:09:31;;;;;;;43.97;25.73;;;5.80;99.90;;;;;;10472870;28;20204;-82
2020/12/01 20:14:53;;;;;;;45.10;25.90;;;5.70;99.90;;;;;;10503060;28;20193;-85
2020/12/01 20:20:16;;;;;;;47.17;25.80;;;5.50;99.90;;;;;;10470448;28;20170;-85
2020/12/01 20:25:39;;;;;;;58.50;39.30;;;5.50;99.90;;;;;;10486698;28;20471;-82
2020/12/01 20:31:03;;;;;;;46.37;28.03;;;5.70;99.90;;;;;;10465674;28;20607;-85
2020/12/01 20:36:57;;;;;;;56.00;29.50;;;5.60;99.90;;;;;;10460708;28;20223;-87
2020/12/01 20:42:22;;;;;;;53.73;29.17;;;5.50;99.90;;;;;;10463517;28;20223;-86
2020/12/01 20:47:43;;;;;;;57.10;30.83;;;5.50;99.90;;;;;;10467894;28;20353;-87
2020/12/01 20:53:06;;;;;;;61.90;32.47;;;5.40;99.90;;;;;;10461630;28;20197;-86
2020/12/01 20:58:28;;;;;;;74.87;33.50;;;5.20;99.90;;;;;;10458837;28;20277;-86
2020/12/01 21:03:50;;;;;;;64.47;30.87;;;5.30;99.90;;;;;;10371959;28;20273;-86
2020/12/01 21:09:14;;;;;;;63.63;31.47;;;5.30;99.90;;;;;;10408093;28;20181;-87
2020/12/01 21:14:40;;;;;;;64.20;32.73;;;5.40;99.90;;;;;;10424465;28;20880;-86
2020/12/01 21:20:02;;;;;;;71.80;35.53;;;5.40;99.90;;;;;;10458119;28;20301;-87
2020/12/01 21:25:24;;;;;;;71.03;36.63;;;5.40;99.90;;;;;;10461820;28;20280;-86
2020/12/01 21:30:58;;;;;;;64.77;32.40;;;5.40;99.90;;;;;;10445676;28;20193;-87
2020/12/01 21:36:21;;;;;;;57.00;31.03;;;5.50;99.90;;;;;;10465836;28;20300;-86
2020/12/01 21:42:03;;;;;;;57.67;31.03;;;5.50;99.90;;;;;;10460741;28;20193;-83
2020/12/01 21:47:26;;;;;;;54.33;29.90;;;5.50;99.90;;;;;;10395913;28;20236;-86
2020/12/01 21:53:06;;;;;;;52.40;29.37;;;5.50;99.90;;;;;;10415249;28;20230;-84
2020/12/01 22:43:22;;;;;;;56.40;31.90;;;5.30;99.90;;;;;;10465461;28;20208;-90
2020/12/01 22:49:09;;;;;;;52.13;30.10;;;5.20;99.90;;;;;;10467610;28;20603;-90
2020/12/01 22:54:55;;;;;;;52.90;31.67;;;5.30;99.90;;;;;;10463554;28;20212;-88
2020/12/01 23:00:25;;;;;;;56.47;30.03;;;5.40;99.90;;;;;;10442331;28;20215;-88
2020/12/01 23:05:47;;;;;;;57.03;31.70;;;5.30;99.90;;;;;;10448533;28;20194;-87
2020/12/01 23:11:14;;;;;;;53.70;29.90;;;5.40;99.90;;;;;;10442492;28;20236;-87
2020/12/01 23:16:40;;;;;;;51.40;29.80;;;5.40;99.90;;;;;;10451740;28;20248;-87
2020/12/01 23:22:08;;;;;;;49.50;29.93;;;5.50;99.90;;;;;;10455228;28;20247;-87
2020/12/01 23:27:34;;;;;;;45.73;28.63;;;5.50;99.90;;;;;;10438451;28;20264;-88
2020/12/01 23:33:12;;;;;;;51.63;31.13;;;5.30;99.90;;;;;;10441890;28;20212;-89
2020/12/01 23:38:46;;;;;;;51.27;28.53;;;5.40;99.90;;;;;;10466177;28;20244;-89
2020/12/01 23:44:19;;;;;;;44.13;27.07;;;5.30;99.90;;;;;;10463760;28;20193;-90
2020/12/01 23:49:48;;;;;;;48.97;29.17;;;5.30;99.90;;;;;;10464443;28;20282;-87
2020/12/01 23:55:10;;;;;;;48.10;29.20;;;5.30;99.90;;;;;;10465245;28;20251;-89
